Time;durP1;ratioP1;P1;durP2;ratioP2;P2;SDS_P1;SDS_P2;PMS_P1;PMS_P2;Temp;Humidity;BMP_temperature;BMP_pressure;BME280_temperature;BME280_humidity;BME280_pressure;Samples;Min_cycle;Max_cycle;Signal;HPM_P1;HPM_P2
2022/04/04 04:00:36;;;;;;;11.53;8.43;;;-0.90;99.90;;;;;;5969346;23;20391;-77
2022/04/04 04:03:03;;;;;;;14.43;7.90;;;-0.90;99.90;;;;;;5048152;28;20444;-77
2022/04/04 04:05:29;;;;;;;11.57;8.30;;;-0.90;99.90;;;;;;5047163;28;21029;-77
2022/04/04 04:07:56;;;;;;;11.80;7.20;;;-0.90;99.90;;;;;;5047956;28;20556;-77
2022/04/04 04:10:24;;;;;;;11.10;8.00;;;-0.90;99.90;;;;;;5045416;28;20453;-77
2022/04/04 04:12:51;;;;;;;12.40;8.27;;;-0.90;99.90;;;;;;5026869;28;20453;-78
2022/04/04 04:15:20;;;;;;;12.53;7.93;;;-0.80;99.90;;;;;;5026847;28;20937;-78
2022/04/04 04:17:51;;;;;;;14.10;9.60;;;-0.80;99.90;;;;;;5026611;28;21132;-78
2022/04/04 04:20:23;;;;;;;12.27;8.50;;;-0.90;99.90;;;;;;5025601;28;20906;-77
2022/04/04 04:22:54;;;;;;;11.83;9.10;;;-0.90;99.90;;;;;;5027253;28;20441;-79
2022/04/04 04:25:22;;;;;;;13.70;9.33;;;-0.80;99.90;;;;;;5027725;28;20442;-79
2022/04/04 04:27:49;;;;;;;14.43;8.43;;;-0.80;99.90;;;;;;5026471;28;20957;-78
2022/04/04 04:30:17;;;;;;;13.60;8.63;;;-0.80;99.90;;;;;;5027527;28;20494;-79
2022/04/04 04:32:48;;;;;;;14.40;8.97;;;-0.80;99.90;;;;;;5027592;28;20454;-79
2022/04/04 04:35:17;;;;;;;15.33;9.50;;;-0.80;99.90;;;;;;5027337;28;20980;-80
2022/04/04 04:37:45;;;;;;;14.40;9.43;;;-0.90;99.90;;;;;;5026912;28;20460;-79
2022/04/04 04:40:14;;;;;;;15.27;8.70;;;-0.90;99.90;;;;;;5027373;28;20461;-79
2022/04/04 04:42:42;;;;;;;15.40;9.10;;;-0.90;99.90;;;;;;5027480;28;20549;-79
2022/04/04 04:45:09;;;;;;;12.37;8.70;;;-1.00;99.90;;;;;;5027324;28;20516;-79
2022/04/04 04:47:37;;;;;;;13.03;8.37;;;-1.00;99.90;;;;;;5027027;28;20496;-79
2022/04/04 04:50:05;;;;;;;14.00;7.90;;;-0.90;99.90;;;;;;5028728;28;20490;-79
2022/04/04 04:52:35;;;;;;;15.63;9.13;;;-1.00;99.90;;;;;;5029302;28;21098;-79
2022/04/04 04:55:03;;;;;;;12.93;8.93;;;-1.00;99.90;;;;;;5029726;28;20457;-79
2022/04/04 04:57:30;;;;;;;13.70;8.30;;;-1.00;99.90;;;;;;5028511;28;20556;-78
2022/04/04 04:59:57;;;;;;;13.17;9.07;;;-1.10;99.90;;;;;;5029207;28;20441;-79
2022/04/04 05:02:24;;;;;;;14.43;8.80;;;-1.10;99.90;;;;;;5029414;28;20483;-79
2022/04/04 05:04:51;;;;;;;11.50;7.50;;;-1.10;99.90;;;;;;5029464;28;20496;-79
2022/04/04 05:07:18;;;;;;;11.03;7.53;;;-1.10;99.90;;;;;;5030323;28;20442;-79
2022/04/04 05:09:46;;;;;;;9.50;8.00;;;-1.10;99.90;;;;;;5029703;28;21021;-80
2022/04/04 05:12:13;;;;;;;17.97;10.40;;;-1.10;99.90;;;;;;5028295;28;20486;-79
2022/04/04 05:14:41;;;;;;;12.37;9.23;;;-1.10;99.90;;;;;;5027558;28;20533;-80
2022/04/04 05:17:07;;;;;;;12.73;9.00;;;-1.10;99.90;;;;;;5027375;28;20903;-80
2022/04/04 05:19:34;;;;;;;12.73;9.53;;;-1.10;99.90;;;;;;5028017;28;20446;-79
2022/04/04 05:22:01;;;;;;;21.53;10.90;;;-1.10;99.90;;;;;;5030456;28;20999;-79
2022/04/04 05:24:29;;;;;;;13.43;9.73;;;-1.20;99.90;;;;;;5029424;28;20442;-79
2022/04/04 05:26:57;;;;;;;11.87;9.17;;;-1.20;99.90;;;;;;5028209;28;20457;-79
2022/04/04 05:29:26;;;;;;;18.17;10.47;;;-1.10;99.90;;;;;;5028321;28;20503;-80
2022/04/04 05:31:54;;;;;;;18.17;9.60;;;-1.20;99.90;;;;;;5028240;28;20477;-79
2022/04/04 05:34:22;;;;;;;16.13;10.13;;;-1.10;99.90;;;;;;5030366;28;20449;-79
2022/04/04 05:36:49;;;;;;;14.60;9.80;;;-1.10;99.90;;;;;;5029665;28;20463;-79
2022/04/04 05:39:16;;;;;;;12.20;9.13;;;-1.10;99.90;;;;;;5029410;28;20462;-79
2022/04/04 05:41:43;;;;;;;16.17;10.63;;;-1.10;99.90;;;;;;5028617;28;20482;-79
2022/04/04 05:44:11;;;;;;;14.13;9.23;;;-1.10;99.90;;;;;;5030874;28;20449;-79
2022/04/04 05:46:38;;;;;;;12.60;8.90;;;-1.10;99.90;;;;;;5027564;28;20565;-78
2022/04/04 05:49:05;;;;;;;14.70;10.37;;;-1.10;99.90;;;;;;5028274;28;20497;-78
2022/04/04 05:51:33;;;;;;;13.03;10.17;;;-1.10;99.90;;;;;;5027415;28;20994;-78
2022/04/04 05:54:00;;;;;;;13.70;10.40;;;-1.10;99.90;;;;;;5028349;28;20465;-79
2022/04/04 05:56:27;;;;;;;15.33;9.97;;;-1.10;99.90;;;;;;5027349;28;20963;-78
2022/04/04 05:58:54;;;;;;;17.10;11.40;;;-1.00;99.90;;;;;;5027553;28;20818;-77
2022/04/04 06:01:22;;;;;;;15.17;10.13;;;-1.00;99.90;;;;;;5027901;28;20576;-78
2022/04/04 06:03:50;;;;;;;16.70;11.00;;;-1.00;99.90;;;;;;5028183;28;20462;-78
2022/04/04 06:06:17;;;;;;;17.33;11.80;;;-1.00;99.90;;;;;;5027979;28;20544;-69
2022/04/04 06:08:44;;;;;;;17.13;11.07;;;-1.00;99.90;;;;;;5026348;28;20548;-74
2022/04/04 06:11:10;;;;;;;14.80;10.40;;;-1.00;99.90;;;;;;5025884;28;20481;-74
2022/04/04 06:13:38;;;;;;;14.47;11.07;;;-0.90;99.90;;;;;;5027895;28;20452;-74
2022/04/04 06:16:05;;;;;;;11.87;9.10;;;-0.90;99.90;;;;;;5034307;28;21156;-76
2022/04/04 06:18:34;;;;;;;14.97;10.43;;;-0.80;99.90;;;;;;5039302;28;20496;-76
2022/04/04 06:21:03;;;;;;;19.17;10.73;;;-0.80;99.90;;;;;;5037638;28;20494;-76
2022/04/04 06:23:30;;;;;;;19.27;11.80;;;-0.80;99.90;;;;;;5041450;28;20450;-77
2022/04/04 06:25:58;;;;;;;17.77;12.27;;;-0.70;99.90;;;;;;5036548;28;20452;-77
2022/04/04 06:28:25;;;;;;;15.37;11.07;;;-0.70;99.90;;;;;;5031383;28;20469;-77
2022/04/04 06:30:52;;;;;;;14.53;11.80;;;-0.70;99.90;;;;;;5030729;28;21060;-77
2022/04/04 06:33:19;;;;;;;17.43;11.93;;;-0.60;99.90;;;;;;5029913;28;20462;-78
2022/04/04 06:35:48;;;;;;;22.77;13.33;;;-0.50;99.90;;;;;;5028842;28;20466;-77
2022/04/04 06:38:18;;;;;;;19.93;12.30;;;-0.50;99.90;;;;;;5028259;28;20461;-77
2022/04/04 06:40:45;;;;;;;22.87;15.60;;;-0.40;99.90;;;;;;5029313;28;20535;-78
2022/04/04 06:43:14;;;;;;;26.20;13.20;;;-0.40;99.90;;;;;;5031769;28;20533;-76
2022/04/04 06:45:41;;;;;;;20.40;13.10;;;-0.30;99.90;;;;;;5031648;28;20486;-77
2022/04/04 06:48:09;;;;;;;21.60;12.63;;;-0.30;99.90;;;;;;5029592;28;20458;-77
2022/04/04 06:50:36;;;;;;;20.30;13.40;;;-0.20;99.90;;;;;;5029673;28;20509;-77
2022/04/04 06:53:05;;;;;;;18.13;13.10;;;-0.10;99.90;;;;;;5030491;28;20949;-78
2022/04/04 06:55:32;;;;;;;17.30;12.00;;;-0.10;99.90;;;;;;5030539;28;20457;-79
2022/04/04 06:57:59;;;;;;;18.33;12.47;;;0.00;99.90;;;;;;5030707;28;20453;-77
2022/04/04 07:00:25;;;;;;;19.17;12.00;;;0.10;99.90;;;;;;5030023;28;20452;-77
2022/04/04 07:02:53;;;;;;;20.37;12.90;;;0.20;99.90;;;;;;5029539;28;20941;-77
2022/04/04 07:05:20;;;;;;;18.23;12.20;;;0.30;99.90;;;;;;5033248;28;20465;-77
2022/04/04 07:07:47;;;;;;;18.30;11.73;;;0.30;99.90;;;;;;5038985;28;20449;-77
2022/04/04 07:10:16;;;;;;;16.50;12.00;;;0.40;99.90;;;;;;5029330;28;20532;-78
2022/04/04 07:12:44;;;;;;;17.17;11.13;;;0.50;99.90;;;;;;5037502;28;20816;-78
2022/04/04 07:15:11;;;;;;;15.00;11.47;;;0.60;99.90;;;;;;5032717;28;20493;-80
2022/04/04 07:17:38;;;;;;;14.73;10.67;;;0.60;99.90;;;;;;5029889;28;20450;-78
2022/04/04 07:20:07;;;;;;;16.23;10.80;;;0.70;99.90;;;;;;5029700;28;20456;-78
2022/04/04 07:22:37;;;;;;;15.80;10.90;;;0.80;99.90;;;;;;5029690;28;20946;-78
2022/04/04 07:25:07;;;;;;;16.80;11.57;;;0.90;99.90;;;;;;5030332;28;20458;-78
2022/04/04 07:27:36;;;;;;;15.70;11.10;;;1.00;99.90;;;;;;5029659;28;20442;-78
2022/04/04 07:30:04;;;;;;;16.17;10.20;;;1.00;99.90;;;;;;5030242;28;20489;-76
2022/04/04 07:32:31;;;;;;;21.00;11.10;;;1.00;99.90;;;;;;5029882;28;20501;-77
2022/04/04 07:34:58;;;;;;;13.90;10.33;;;1.00;99.90;;;;;;5030059;28;21037;-76
2022/04/04 07:37:24;;;;;;;15.67;10.40;;;1.00;99.90;;;;;;5029283;28;20463;-76
2022/04/04 07:39:51;;;;;;;16.30;11.00;;;1.10;99.90;;;;;;5029793;28;20456;-77
2022/04/04 07:42:18;;;;;;;14.33;10.70;;;1.20;99.90;;;;;;5029774;28;20482;-76
2022/04/04 07:44:47;;;;;;;15.50;9.97;;;1.30;99.90;;;;;;5029798;28;20462;-78
2022/04/04 07:47:13;;;;;;;16.83;11.03;;;1.40;99.90;;;;;;5029326;28;20938;-77
2022/04/04 07:49:40;;;;;;;13.90;9.83;;;1.50;99.90;;;;;;5029257;28;20505;-77
2022/04/04 07:52:07;;;;;;;15.03;10.10;;;1.60;99.90;;;;;;5029500;28;20481;-78
2022/04/04 07:54:34;;;;;;;16.50;10.67;;;1.50;99.90;;;;;;5029708;28;20545;-77
2022/04/04 07:57:01;;;;;;;10.93;8.57;;;1.60;99.90;;;;;;5029285;28;20466;-77
2022/04/04 07:59:28;;;;;;;15.57;10.90;;;1.70;99.90;;;;;;5029798;28;20452;-77
2022/04/04 08:01:56;;;;;;;14.47;10.83;;;1.80;99.90;;;;;;5030357;28;20494;-79
2022/04/04 08:04:23;;;;;;;12.90;9.60;;;1.90;99.90;;;;;;5030119;28;20457;-78
2022/04/04 08:06:50;;;;;;;13.27;9.73;;;1.90;99.90;;;;;;5028857;28;20969;-77
2022/04/04 08:09:17;;;;;;;12.13;9.30;;;2.00;99.90;;;;;;5029088;28;20464;-77
2022/04/04 08:11:44;;;;;;;15.50;9.90;;;2.10;99.90;;;;;;5029809;28;21032;-79
2022/04/04 08:14:11;;;;;;;13.27;9.40;;;2.20;99.90;;;;;;5029721;28;20452;-77
2022/04/04 08:16:38;;;;;;;12.23;8.60;;;2.40;99.90;;;;;;5028759;28;20458;-77
2022/04/04 08:19:07;;;;;;;12.37;7.83;;;2.50;99.90;;;;;;5029245;28;20552;-78
2022/04/04 08:21:34;;;;;;;10.47;8.33;;;2.70;99.90;;;;;;5029402;28;20485;-79
2022/04/04 08:24:00;;;;;;;12.03;8.60;;;2.80;99.90;;;;;;5029676;28;20891;-79
2022/04/04 08:26:27;;;;;;;11.77;8.00;;;3.00;99.90;;;;;;5029738;28;20469;-79
2022/04/04 08:28:54;;;;;;;10.77;8.03;;;3.20;99.90;;;;;;5029192;28;20454;-79
2022/04/04 08:31:21;;;;;;;10.27;8.23;;;3.30;99.90;;;;;;5028808;28;20497;-78
2022/04/04 08:33:48;;;;;;;13.10;8.03;;;3.40;99.90;;;;;;5029238;28;20461;-79
2022/04/04 08:36:17;;;;;;;9.37;7.60;;;3.70;99.90;;;;;;5028288;28;20460;-78
2022/04/04 08:38:44;;;;;;;11.30;8.10;;;4.30;99.90;;;-140.53;0.00;146495.75;5029165;28;20480;-79
2022/04/04 08:41:11;;;;;;;9.03;7.13;;;4.50;99.90;;;;;;5028888;28;20993;-79
2022/04/04 08:43:40;;;;;;;12.53;9.07;;;4.50;99.90;;;;;;5028805;28;20541;-79
2022/04/04 08:46:08;;;;;;;15.40;8.73;;;4.50;99.90;;;;;;5028669;28;20454;-79
2022/04/04 08:48:36;;;;;;;9.37;7.57;;;5.00;99.90;;;;;;5027616;28;21004;-78
2022/04/04 08:51:03;;;;;;;12.00;8.43;;;5.20;99.90;;;;;;5029407;28;20545;-80
2022/04/04 08:53:31;;;;;;;10.67;8.33;;;5.20;99.90;;;;;;5027469;28;20518;-77
2022/04/04 08:55:58;;;;;;;9.57;7.00;;;5.70;99.90;;;;;;5026814;28;20833;-77
2022/04/04 08:58:26;;;;;;;9.60;7.50;;;5.70;99.90;;;;;;5027093;28;20505;-77
2022/04/04 09:00:53;;;;;;;9.60;7.60;;;5.60;99.90;;;;;;5029607;28;20477;-80
2022/04/04 09:03:22;;;;;;;11.23;7.93;;;5.50;99.90;;;;;;5030517;28;20453;-85
2022/04/04 09:05:54;;;;;;;16.37;8.40;;;5.40;99.90;;;;;;5033183;28;20457;-85
2022/04/04 09:08:23;;;;;;;8.73;7.63;;;5.50;99.90;;;;;;5033768;28;20831;-84
2022/04/04 09:10:54;;;;;;;9.80;7.63;;;5.50;99.90;;;;;;5033647;28;20585;-84
2022/04/04 09:13:22;;;;;;;10.40;8.13;;;6.00;99.90;;;;;;5035573;28;20923;-84
2022/04/04 09:15:58;;;;;;;9.87;7.83;;;6.50;99.90;;;;;;5033244;28;20454;-84
2022/04/04 09:18:49;;;;;;;9.43;8.03;;;7.10;99.90;;;;;;5032696;28;20457;-86
2022/04/04 09:21:31;;;;;;;9.50;7.67;;;7.20;99.90;;;;;;5032237;28;20477;-83
2022/04/04 09:24:02;;;;;;;9.57;7.83;;;7.50;99.90;;;;;;5030888;28;20468;-82
2022/04/04 09:26:34;;;;;;;10.30;8.23;;;7.60;99.90;;;;;;5030303;28;20454;-82
2022/04/04 09:29:06;;;;;;;9.47;7.60;;;8.00;99.90;;;;;;5030597;28;20461;-84
2022/04/04 09:31:33;;;;;;;10.50;7.87;;;8.00;99.90;;;;;;5030029;28;20493;-84
2022/04/04 09:34:01;;;;;;;12.40;7.23;;;7.80;99.90;;;;;;5030036;28;20456;-84
2022/04/04 09:36:28;;;;;;;8.30;6.77;;;8.10;99.90;;;;;;5029850;28;20458;-85
2022/04/04 09:39:02;;;;;;;8.00;7.17;;;7.80;99.90;;;;;;5029684;28;20453;-85
2022/04/04 09:41:29;;;;;;;10.30;7.37;;;7.70;99.90;;;;;;5030691;28;20485;-82
2022/04/04 09:43:58;;;;;;;7.37;6.60;;;8.00;99.90;;;;;;5030674;28;20454;-85
2022/04/04 09:46:32;;;;;;;8.23;6.50;;;8.40;99.90;;;;;;5032034;28;20557;-83
2022/04/04 09:49:07;;;;;;;8.40;6.87;;;8.50;99.90;;;;;;5032396;28;20441;-83
2022/04/04 09:51:52;;;;;;;6.67;5.87;;;8.40;99.90;;;;;;5034112;28;20525;-83
2022/04/04 09:54:23;;;;;;;5.70;5.20;;;8.30;99.90;;;;;;5033351;28;20448;-84
2022/04/04 09:56:56;;;;;;;7.47;5.97;;;8.20;99.90;;;;;;5033197;28;20454;-84
2022/04/04 09:59:26;;;;;;;5.40;5.00;;;7.80;99.90;;;;;;5033862;28;20984;-84
2022/04/04 10:01:53;;;;;;;6.43;5.70;;;7.80;99.90;;;;;;5035392;28;20580;-83
2022/04/04 10:04:22;;;;;;;5.73;5.23;;;7.70;99.90;;;24.77;0.00;145804.81;5034836;28;20470;-83
2022/04/04 10:06:52;;;;;;;5.47;4.97;;;7.60;99.90;;;;;;5034914;28;20524;-82
2022/04/04 10:09:20;;;;;;;6.67;6.07;;;7.20;99.90;;;;;;5049091;28;20445;-84
2022/04/04 10:11:47;;;;;;;5.60;5.10;;;7.30;99.90;;;;;;5053574;28;20573;-87
2022/04/04 10:14:17;;;;;;;6.77;5.53;;;7.50;99.90;;;;;;5052526;28;20509;-84
2022/04/04 10:16:46;;;;;;;6.00;5.40;;;7.60;99.80;;;;;;5056573;28;20468;-85
2022/04/04 10:19:14;;;;;;;5.30;4.67;;;7.60;99.90;;;;;;5056748;28;20461;-84
2022/04/04 10:21:43;;;;;;;5.17;4.40;;;7.90;99.90;;;;;;5053976;28;20478;-84
2022/04/04 10:24:12;;;;;;;5.50;5.00;;;8.10;99.80;;;;;;5043325;28;20440;-84
2022/04/04 10:26:39;;;;;;;5.43;4.93;;;8.10;99.60;;;;;;5042019;28;20832;-84
2022/04/04 10:29:14;;;;;;;6.73;5.30;;;8.10;99.50;;;;;;5042540;28;20953;-84
2022/04/04 10:31:49;;;;;;;6.87;5.97;;;8.00;99.90;;;;;;5050677;28;20539;-81
2022/04/04 10:34:18;;;;;;;6.33;5.27;;;8.00;99.90;;;;;;5056492;28;20421;-86
2022/04/04 10:36:57;;;;;;;6.07;5.33;;;8.00;99.90;;;;;;5055410;28;20433;-82
2022/04/04 10:39:35;;;;;;;6.13;5.50;;;8.30;99.80;;;;;;5053953;28;20528;-85
2022/04/04 10:42:04;;;;;;;8.57;5.80;;;8.10;99.90;;;;;;5042999;28;20549;-81
2022/04/04 10:44:49;;;;;;;7.70;5.83;;;8.20;99.90;;;;;;5037285;28;20446;-82
2022/04/04 10:47:24;;;;;;;7.43;6.10;;;8.30;99.90;;;;;;5039324;28;20448;-82
2022/04/04 10:49:51;;;;;;;5.63;4.83;;;8.90;99.90;;;;;;5034225;28;20461;-80
2022/04/04 10:52:19;;;;;;;6.63;5.87;;;8.90;99.90;;;;;;5033449;28;20576;-80
2022/04/04 10:54:47;;;;;;;7.00;6.30;;;8.90;99.90;;;;;;5033939;28;20454;-81
2022/04/04 10:57:18;;;;;;;9.40;5.70;;;9.00;99.90;;;;;;5034525;28;20484;-83
2022/04/04 10:59:47;;;;;;;7.30;5.90;;;8.90;99.90;;;;;;5035454;28;20553;-83
2022/04/04 11:02:15;;;;;;;5.77;5.27;;;8.80;98.80;;;;;;5034109;28;20493;-82
2022/04/04 11:07:41;;;;;;;9.77;5.17;;;8.70;99.90;;;;;;5033966;28;20485;-81
2022/04/04 11:10:09;;;;;;;5.10;4.60;;;8.60;99.00;;;;;;5039301;28;20431;-83
2022/04/04 11:12:55;;;;;;;4.63;4.23;;;8.60;98.90;;;;;;5039192;28;20458;-82
2022/04/04 11:15:42;;;;;;;4.97;4.50;;;8.50;99.70;;;23.51;0.00;147081.56;5036974;28;20866;-83
2022/04/04 11:18:10;;;;;;;6.37;5.77;;;8.60;99.30;;;;;;5036812;28;20489;-83
2022/04/04 11:20:47;;;;;;;8.83;5.70;;;8.50;98.70;;;;;;5037943;28;20469;-84
2022/04/04 11:23:14;;;;;;;7.37;5.90;;;8.50;99.90;;;;;;5037702;28;20502;-84
2022/04/04 11:25:52;;;;;;;5.73;5.23;;;8.80;99.90;;;;;;5036287;28;21036;-84
2022/04/04 11:28:22;;;;;;;6.20;4.93;;;8.70;99.10;;;;;;5036367;28;21112;-83
2022/04/04 11:30:53;;;;;;;6.20;5.60;;;9.20;99.90;;;;;;5035615;28;20560;-83
2022/04/04 11:33:22;;;;;;;6.23;5.33;;;9.20;99.90;;;;;;5033939;28;20521;-84
2022/04/04 11:35:52;;;;;;;5.77;5.20;;;9.30;99.90;;;;;;5034215;28;20996;-84
2022/04/04 11:38:20;;;;;;;5.93;5.30;;;9.50;99.90;;;;;;5032189;28;20453;-84
2022/04/04 11:40:53;;;;;;;10.83;6.47;;;9.60;99.90;;;;;;5032795;28;20496;-85
2022/04/04 11:43:23;;;;;;;7.47;5.70;;;9.60;99.10;;;;;;5032441;28;21091;-84
2022/04/04 11:45:52;;;;;;;7.07;6.37;;;9.90;99.90;;;;;;5032943;28;20458;-84
2022/04/04 11:48:24;;;;;;;6.67;6.07;;;10.30;99.90;;;;;;5032666;28;20454;-84
2022/04/04 11:50:57;;;;;;;7.10;6.20;;;10.70;99.90;;;;;;5033261;28;20501;-88
2022/04/04 11:53:26;;;;;;;7.47;5.80;;;11.10;98.50;;;;;;5034309;28;20462;-84
2022/04/04 11:56:00;;;;;;;8.50;6.90;;;11.70;97.00;;;;;;5033385;28;20458;-84
2022/04/04 11:58:27;;;;;;;6.50;5.90;;;11.70;98.00;;;;;;5034071;28;20496;-86
2022/04/04 12:01:04;;;;;;;7.77;5.80;;;11.70;97.20;;;;;;5033976;28;20517;-84
2022/04/04 12:03:32;;;;;;;6.77;5.33;;;11.10;96.70;;;;;;5034061;28;20465;-84
2022/04/04 12:06:06;;;;;;;6.03;5.53;;;10.30;96.30;;;;;;5033626;28;20457;-85
2022/04/04 12:08:35;;;;;;;8.43;5.00;;;9.90;96.90;;;;;;5031616;28;21318;-85
2022/04/04 12:11:02;;;;;;;5.30;4.80;;;9.50;97.30;;;;;;5032928;28;20507;-81
2022/04/04 12:13:29;;;;;;;5.43;4.93;;;9.40;97.00;;;;;;5032996;28;20454;-79
2022/04/04 12:15:56;;;;;;;6.27;5.27;;;9.30;96.60;;;;;;5033200;28;20476;-82
2022/04/04 12:18:24;;;;;;;5.13;4.60;;;9.40;98.00;;;;;;5032977;28;20477;-83
2022/04/04 12:20:53;;;;;;;6.37;5.30;;;9.50;98.40;;;;;;5034008;28;20530;-84
2022/04/04 12:26:10;;;;;;;5.67;5.17;;;10.10;96.00;;;;;;5038195;28;20805;-84
2022/04/04 12:28:39;;;;;;;6.50;4.83;;;10.00;96.30;;;;;;5042272;28;20462;-84
2022/04/04 12:31:13;;;;;;;6.10;5.50;;;9.80;97.50;;;;;;5040630;28;20521;-86
2022/04/04 12:33:41;;;;;;;7.20;5.47;;;9.50;97.50;;;;;;5042909;28;20965;-84
2022/04/04 12:36:08;;;;;;;6.57;4.80;;;9.50;98.20;;;;;;5040550;28;20469;-82
2022/04/04 12:38:39;;;;;;;6.30;5.63;;;9.70;98.10;;;;;;5039442;28;20458;-83
2022/04/04 12:41:12;;;;;;;5.53;5.00;;;10.00;97.50;;;;;;5040072;28;20588;-83
2022/04/04 12:43:41;;;;;;;7.13;5.10;;;10.10;96.40;;;;;;5035071;28;20442;-83
2022/04/04 12:46:20;;;;;;;5.77;5.17;;;10.00;96.30;;;;;;5034046;28;20474;-83
2022/04/04 12:48:47;;;;;;;8.07;5.00;;;9.80;97.70;;;;;;5035703;28;20456;-83
2022/04/04 12:51:27;;;;;;;5.20;4.70;;;9.90;97.20;;;;;;5034617;28;20715;-83
2022/04/04 12:53:55;;;;;;;5.73;5.13;;;10.00;97.40;;;;;;5037559;28;20499;-83
2022/04/04 12:56:23;;;;;;;5.37;4.87;;;10.20;97.10;;;;;;5035825;28;20478;-83
2022/04/04 12:59:06;;;;;;;4.90;4.50;;;10.40;96.30;;;;;;5038683;28;20446;-83
2022/04/04 13:01:33;;;;;;;9.80;5.40;;;11.20;96.10;;;;;;5045317;28;20475;-84
2022/04/04 13:04:00;;;;;;;5.50;4.90;;;11.20;95.20;;;;;;5053137;28;20429;-84
2022/04/04 13:06:31;;;;;;;5.70;4.87;;;10.90;95.10;;;;;;5054104;28;20438;-85
2022/04/04 13:09:00;;;;;;;6.37;5.00;;;10.60;95.30;;;;;;5055282;28;20450;-85
2022/04/04 13:11:29;;;;;;;5.40;4.87;;;10.40;95.60;;;;;;5055989;28;20537;-84
2022/04/04 13:13:59;;;;;;;6.20;5.60;;;10.40;96.40;;;;;;5046272;28;20494;-83
2022/04/04 13:16:30;;;;;;;6.00;5.40;;;10.50;96.40;;;;;;5035358;28;20469;-83
2022/04/04 13:18:57;;;;;;;5.57;5.07;;;10.60;95.50;;;;;;5034718;28;20524;-83
2022/04/04 13:21:24;;;;;;;5.47;4.67;;;10.70;95.90;;;;;;5032197;28;20488;-84
2022/04/04 13:23:50;;;;;;;6.50;4.77;;;10.80;95.40;;;;;;5032971;28;20450;-82
2022/04/04 13:26:19;;;;;;;5.93;5.33;;;10.60;95.80;;;;;;5031109;28;20456;-82
2022/04/04 13:28:46;;;;;;;6.63;5.30;;;10.50;95.30;;;;;;5031166;28;20497;-83
2022/04/04 13:31:12;;;;;;;6.10;5.50;;;10.20;95.40;;;;;;5031193;28;20497;-83
2022/04/04 13:33:39;;;;;;;5.93;5.33;;;10.10;95.80;;;;;;5031404;28;20541;-82
2022/04/04 13:36:06;;;;;;;6.57;5.13;;;10.00;96.20;;;;;;5032044;28;20442;-82
2022/04/04 13:38:33;;;;;;;6.47;5.43;;;10.10;97.10;;;;;;5030628;28;20473;-83
2022/04/04 13:41:00;;;;;;;5.70;5.20;;;10.10;96.30;;;;;;5030622;28;20473;-83
2022/04/04 13:43:29;;;;;;;7.57;5.40;;;10.00;96.60;;;;;;5030589;28;20462;-82
2022/04/04 13:45:56;;;;;;;6.70;5.50;;;9.90;97.30;;;;;;5030580;28;20458;-82
2022/04/04 13:48:23;;;;;;;6.37;5.67;;;9.90;97.30;;;;;;5029479;28;20494;-82
2022/04/04 13:50:50;;;;;;;6.33;5.10;;;9.90;97.30;;;;;;5029995;28;20470;-82
2022/04/04 13:53:17;;;;;;;6.60;5.60;;;10.00;96.60;;;;;;5030964;28;20490;-81
2022/04/04 13:55:44;;;;;;;8.27;5.90;;;10.10;96.70;;;;;;5028568;28;20886;-80
2022/04/04 13:58:11;;;;;;;5.60;5.10;;;10.20;97.30;;;;;;5028076;28;20867;-79
2022/04/04 14:00:39;;;;;;;6.63;6.03;;;10.20;96.90;;;;;;5029692;28;20482;-82
2022/04/04 14:03:06;;;;;;;6.80;6.17;;;10.20;97.20;;;;;;5028260;28;20442;-81
2022/04/04 14:05:33;;;;;;;8.90;6.00;;;10.20;97.20;;;;;;5030366;28;20488;-82
2022/04/04 14:08:01;;;;;;;6.77;5.63;;;10.30;97.20;;;;;;5029008;28;20540;-82
2022/04/04 14:10:28;;;;;;;6.37;5.77;;;10.30;97.40;;;;;;5030606;28;20462;-82
2022/04/04 14:12:55;;;;;;;6.47;5.53;;;10.50;97.80;;;;;;5029606;28;20497;-81
2022/04/04 14:15:22;;;;;;;9.67;6.67;;;10.60;96.20;;;;;;5029054;28;20468;-81
2022/04/04 14:17:50;;;;;;;6.90;5.50;;;10.60;95.90;;;;;;5030135;28;20489;-83
2022/04/04 14:20:17;;;;;;;7.10;6.23;;;10.40;95.30;;;;;;5031501;28;20540;-82
2022/04/04 14:22:44;;;;;;;8.83;6.20;;;10.30;96.30;;;;;;5032505;28;20524;-81
2022/04/04 14:25:11;;;;;;;6.10;5.30;;;10.20;96.20;;;;;;5028463;28;20472;-81
2022/04/04 14:27:38;;;;;;;6.70;5.20;;;10.30;97.50;;;;;;5031976;28;20462;-80
2022/04/04 14:30:07;;;;;;;7.23;6.20;;;10.30;97.30;;;;;;5030714;28;20508;-82
2022/04/04 14:32:34;;;;;;;5.70;5.20;;;10.20;96.70;;;;;;5031494;28;20494;-82
2022/04/04 14:35:02;;;;;;;7.70;6.17;;;10.10;97.80;;;;;;5033616;28;20463;-82
2022/04/04 14:37:29;;;;;;;7.50;5.70;;;10.10;97.10;;;;;;5029727;28;20564;-71
2022/04/04 14:39:56;;;;;;;6.30;5.70;;;10.10;96.80;;;;;;5030315;28;20460;-82
2022/04/04 14:42:23;;;;;;;8.97;5.60;;;9.80;97.20;;;;;;5031631;28;20470;-81
2022/04/04 14:44:52;;;;;;;7.27;6.13;;;9.80;98.30;;;;;;5031591;28;20519;-81
2022/04/04 14:47:19;;;;;;;6.70;6.10;;;9.70;97.40;;;;;;5029648;28;20462;-82
2022/04/04 14:49:45;;;;;;;6.30;5.70;;;9.60;97.90;;;;;;5030461;28;20450;-81
2022/04/04 14:52:14;;;;;;;6.27;5.67;;;9.50;98.80;;;;;;5032224;28;21012;-81
2022/04/04 14:54:40;;;;;;;7.93;6.43;;;9.40;99.00;;;;;;5032930;28;20457;-81
2022/04/04 14:57:08;;;;;;;9.13;6.23;;;9.30;98.80;;;;;;5031204;28;20483;-81
2022/04/04 14:59:35;;;;;;;6.83;5.53;;;9.10;98.90;;;;;;5026997;28;20449;-79
2022/04/04 15:02:01;;;;;;;6.13;5.63;;;9.00;99.90;;;;;;5029928;28;20482;-79
2022/04/04 15:04:30;;;;;;;8.43;6.13;;;9.00;99.10;;;;;;5032900;28;20546;-79
2022/04/04 15:06:57;;;;;;;6.80;5.80;;;9.00;98.80;;;;;;5031262;28;20449;-80
2022/04/04 15:09:25;;;;;;;8.17;5.63;;;9.00;98.20;;;;;;5032353;28;20551;-79
2022/04/04 15:11:52;;;;;;;12.97;6.53;;;8.80;98.80;;;;;;5031480;28;20588;-79
2022/04/04 15:14:20;;;;;;;11.23;6.67;;;8.70;99.90;;;;;;5030750;28;20465;-78
2022/04/04 15:16:48;;;;;;;7.00;6.30;;;8.70;99.40;;;;;;5030314;28;20544;-79
2022/04/04 15:19:15;;;;;;;7.73;5.93;;;8.60;99.20;;;;;;5030094;28;20554;-79
2022/04/04 15:21:43;;;;;;;7.20;6.20;;;8.60;99.80;;;;;;5030405;28;21021;-81
2022/04/04 15:24:10;;;;;;;7.53;6.10;;;8.60;99.90;;;;;;5031553;28;20450;-79
2022/04/04 15:26:39;;;;;;;7.70;6.23;;;8.60;99.90;;;;;;5030617;28;20468;-78
2022/04/04 15:29:07;;;;;;;7.10;6.03;;;8.70;99.90;;;;;;5030919;28;20482;-79
2022/04/04 15:31:34;;;;;;;9.23;6.97;;;8.60;99.90;;;;;;5030926;28;20564;-78
2022/04/04 15:34:01;;;;;;;9.50;6.30;;;8.60;99.90;;;;;;5030517;28;20454;-80
2022/04/04 15:36:33;;;;;;;10.03;7.53;;;8.50;99.90;;;;;;5029562;28;20540;-79
2022/04/04 15:39:00;;;;;;;9.30;6.60;;;8.40;99.90;;;;;;5031471;28;20481;-79
2022/04/04 15:41:27;;;;;;;9.27;6.27;;;8.40;99.90;;;;;;5030274;28;20510;-79
2022/04/04 15:43:55;;;;;;;7.80;6.43;;;8.40;99.90;;;;;;5030211;28;20482;-78
2022/04/04 15:46:26;;;;;;;10.27;6.57;;;8.40;99.90;;;;;;5030831;28;20465;-77
2022/04/04 15:48:53;;;;;;;8.00;6.90;;;8.40;99.90;;;;;;5030544;28;20434;-77
2022/04/04 15:51:21;;;;;;;6.93;6.23;;;8.20;99.90;;;;;;5031308;28;20488;-81
2022/04/04 15:53:48;;;;;;;8.57;6.27;;;8.20;99.90;;;;;;5030486;28;20493;-78
2022/04/04 15:56:15;;;;;;;8.87;6.40;;;8.10;99.90;;;;;;5029409;28;20454;-78
2022/04/04 15:58:42;;;;;;;6.83;6.10;;;8.10;99.90;;;;;;5029514;28;21005;-78
2022/04/04 16:01:11;;;;;;;8.00;6.10;;;8.00;99.90;;;;;;5028770;28;20500;-80
2022/04/04 16:03:42;;;;;;;7.50;6.10;;;8.10;99.90;;;;;;5029327;28;20453;-78
2022/04/04 16:06:10;;;;;;;7.33;5.80;;;8.10;99.90;;;;;;5029570;28;20435;-76
2022/04/04 16:08:37;;;;;;;6.87;6.07;;;8.00;99.90;;;;;;5028539;28;20464;-78
2022/04/04 16:11:04;;;;;;;8.20;6.67;;;7.90;99.90;;;;;;5028849;28;20486;-77
2022/04/04 16:13:30;;;;;;;7.90;7.00;;;7.90;99.90;;;;;;5029042;28;20939;-80
2022/04/04 16:15:59;;;;;;;8.53;6.80;;;7.80;99.90;;;;;;5029511;28;20547;-77
2022/04/04 16:18:27;;;;;;;11.87;6.30;;;7.80;99.90;;;;;;5028460;28;20488;-78
2022/04/04 16:20:55;;;;;;;7.77;5.90;;;7.80;99.90;;;;;;5027262;28;20569;-77
2022/04/04 16:23:22;;;;;;;14.80;11.30;;;7.80;99.90;;;;;;5028521;28;20557;-78
2022/04/04 16:25:49;;;;;;;7.23;6.30;;;7.80;99.90;;;;;;5028058;28;20450;-78
2022/04/04 16:28:16;;;;;;;7.37;6.17;;;7.80;99.90;;;;;;5028903;28;21010;-79
2022/04/04 16:30:43;;;;;;;7.57;6.17;;;7.90;99.90;;;;;;5028854;28;20482;-79
2022/04/04 16:33:09;;;;;;;8.33;6.40;;;7.80;99.90;;;;;;5030489;28;20497;-79
2022/04/04 16:35:38;;;;;;;9.80;5.57;;;7.70;99.90;;;;;;5028820;28;20458;-78
2022/04/04 16:38:05;;;;;;;9.07;6.10;;;7.70;99.90;;;;;;5027768;28;20962;-78
2022/04/04 16:40:32;;;;;;;7.13;5.70;;;7.60;99.90;;;;;;5029199;28;20485;-79
2022/04/04 16:43:00;;;;;;;7.50;6.13;;;7.70;99.90;;;;;;5028982;28;20453;-79
2022/04/04 16:45:27;;;;;;;9.10;6.93;;;7.70;99.90;;;;;;5028226;28;20457;-79
2022/04/04 16:47:54;;;;;;;7.77;6.97;;;7.70;99.90;;;;;;5027885;28;20468;-79
2022/04/04 16:50:21;;;;;;;8.50;6.90;;;7.60;99.90;;;;;;5028175;28;20457;-78
2022/04/04 16:52:49;;;;;;;8.03;7.17;;;7.70;99.90;;;;;;5027718;28;20547;-79
2022/04/04 16:55:16;;;;;;;9.80;7.00;;;7.70;99.90;;;;;;5028325;28;20453;-79
2022/04/04 16:57:43;;;;;;;9.63;6.37;;;7.70;99.90;;;;;;5027011;28;20540;-79